Time;durP1;ratioP1;P1;durP2;ratioP2;P2;SDS_P1;SDS_P2;PMS_P1;PMS_P2;Temp;Humidity;BMP_temperature;BMP_pressure;BME280_temperature;BME280_humidity;BME280_pressure;Samples;Min_cycle;Max_cycle;Signal;HPM_P1;HPM_P2
2022/07/17 08:04:20;;;;;;;9.40;8.90;;;36.00;99.90;;;;;;5734531;23;20085;-93
2022/07/17 08:06:46;;;;;;;9.93;9.02;;;35.50;99.90;;;;;;4944258;28;20118;-91
2022/07/17 08:09:13;;;;;;;9.82;9.32;;;35.90;99.90;;;;;;4944182;28;20034;-94
2022/07/17 08:11:39;;;;;;;10.45;9.85;;;35.80;99.90;;;;;;4944765;28;20555;-91
2022/07/17 08:14:06;;;;;;;10.02;9.52;;;35.50;99.90;;;;;;4944424;28;20114;-94
2022/07/17 08:16:32;;;;;;;10.05;9.35;;;35.50;99.90;;;;;;4959993;28;20027;-91
2022/07/17 08:18:58;;;;;;;9.90;9.25;;;35.70;99.90;;;;;;4944393;28;20035;-93
2022/07/17 08:21:25;;;;;;;9.93;9.43;;;35.90;99.90;;;;;;4962265;28;20023;-93
2022/07/17 08:23:51;;;;;;;10.48;9.88;;;35.60;99.80;;;;;;4946890;28;20053;-93
2022/07/17 08:26:18;;;;;;;9.65;9.15;;;35.90;98.80;;;;;;4950660;28;20031;-93
2022/07/17 08:28:44;;;;;;;10.13;9.48;;;36.10;98.40;;;;;;4945604;28;20033;-92
2022/07/17 08:31:11;;;;;;;9.80;9.20;;;36.30;98.10;;;;;;4961447;28;20058;-92
2022/07/17 08:33:38;;;;;;;10.23;9.43;;;36.30;98.30;;;;;;4944359;28;20026;-93
2022/07/17 08:36:04;;;;;;;9.70;9.20;;;36.40;97.70;;;;;;4943494;28;20476;-90
2022/07/17 08:38:31;;;;;;;9.30;8.70;;;36.10;98.40;;;;;;4943858;28;20039;-92
2022/07/17 08:40:59;;;;;;;9.65;9.00;;;36.50;98.80;;;;;;4943585;28;20488;-93
2022/07/17 08:43:26;;;;;;;10.20;9.50;;;36.60;97.80;;;;;;4959370;28;20069;-93
2022/07/17 08:45:52;;;;;;;10.20;9.50;;;36.40;98.10;;;;;;4943658;28;20110;-95
2022/07/17 08:48:20;;;;;;;9.93;9.40;;;35.80;98.20;;;;;;4959544;28;20042;-92
2022/07/17 08:50:48;;;;;;;9.93;9.40;;;36.10;98.30;;;;;;4943942;28;20042;-94
2022/07/17 08:53:16;;;;;;;10.00;9.50;;;36.30;98.60;;;;;;4959164;28;20034;-92
2022/07/17 08:55:42;;;;;;;10.35;9.85;;;36.30;98.60;;;;;;4943166;28;20026;-93
2022/07/17 08:58:14;;;;;;;10.45;9.75;;;36.20;98.00;;;;;;4958751;28;20039;-93
2022/07/17 09:00:41;;;;;;;9.45;9.05;;;36.30;98.10;;;;;;4958820;28;20118;-92
2022/07/17 09:03:09;;;;;;;10.25;9.75;;;36.30;98.40;;;;;;4943267;28;20432;-93
2022/07/17 09:05:41;;;;;;;10.63;9.80;;;36.30;97.20;;;;;;4939891;29;20051;-92
2022/07/17 09:08:15;;;;;;;10.10;9.60;;;36.10;97.70;;;;;;4955847;29;20039;-91
2022/07/17 09:10:45;;;;;;;10.40;9.80;;;35.80;98.30;;;;;;4942031;29;20118;-91
2022/07/17 09:13:23;;;;;;;10.60;10.02;;;36.30;98.50;;;;;;4942408;29;20110;-91
2022/07/17 09:27:23;;;;;;;10.80;10.10;;;36.20;98.10;;;;;;5102600;23;20174;-92
2022/07/17 09:30:10;;;;;;;10.40;9.90;;;36.20;96.90;;;;;;4970923;28;20041;-94
2022/07/17 09:32:39;;;;;;;10.15;9.65;;;36.10;97.00;;;;;;4963794;28;20496;-93
2022/07/17 09:35:10;;;;;;;10.77;10.07;;;35.80;97.40;;;;;;4947438;28;20126;-95
2022/07/17 09:37:38;;;;;;;10.63;9.85;;;36.40;97.40;;;;;;4947205;28;20167;-92
2022/07/17 09:41:09;;;;;;;10.18;9.68;;;36.10;97.20;;;;;;4961621;28;20034;-94
2022/07/17 09:43:03;;;;;;;10.23;9.73;;;35.90;97.50;;;;;;4959228;28;20030;-93
2022/07/17 09:45:32;;;;;;;10.65;10.00;;;35.60;97.80;;;;;;4943667;28;20074;-91
2022/07/17 09:48:00;;;;;;;10.38;9.80;;;35.30;95.80;;;;;;4945842;28;20035;-92
2022/07/17 09:50:28;;;;;;;10.85;10.10;;;35.30;96.90;;;;;;4962472;28;20035;-92
2022/07/17 09:52:57;;;;;;;10.70;10.00;;;35.60;96.40;;;;;;4944020;28;20058;-92
2022/07/17 09:55:33;;;;;;;10.70;10.10;;;35.40;95.70;;;;;;4959007;28;20031;-91
2022/07/17 09:58:02;;;;;;;10.70;9.90;;;35.10;95.60;;;;;;4960269;28;20039;-92
2022/07/17 10:00:29;;;;;;;10.82;9.95;;;35.10;95.80;;;;;;4959938;28;20034;-93
2022/07/17 10:02:57;;;;;;;10.57;9.98;;;35.00;96.10;;;;;;4958583;28;20031;-93
2022/07/17 10:05:23;;;;;;;10.90;10.20;;;35.00;95.20;;;;;;4958337;28;20030;-93
2022/07/17 10:07:50;;;;;;;10.90;10.10;;;35.00;95.60;;;;;;4958274;28;20034;-91
2022/07/17 10:10:19;;;;;;;11.20;10.50;;;34.90;95.90;;;;;;4958327;28;20029;-92
2022/07/17 10:12:49;;;;;;;10.60;10.10;;;35.00;95.50;;;;;;4958339;28;20118;-94
2022/07/17 10:15:17;;;;;;;10.25;9.77;;;35.30;95.40;;;;;;4942349;28;20031;-92
2022/07/17 10:17:43;;;;;;;11.02;10.40;;;35.00;95.40;;;;;;4958381;28;20121;-92
2022/07/17 10:20:11;;;;;;;10.88;10.38;;;35.00;95.20;;;;;;4942382;28;20038;-93
2022/07/17 10:22:46;;;;;;;11.05;10.30;;;34.90;95.30;;;;;;4944284;28;20090;-91
2022/07/17 10:25:15;;;;;;;10.90;10.30;;;35.20;95.60;;;;;;4962020;28;20062;-90
2022/07/17 10:27:51;;;;;;;10.93;10.43;;;35.40;94.50;;;;;;4958714;28;20051;-93
2022/07/17 10:30:27;;;;;;;10.98;10.38;;;35.10;94.30;;;;;;4959111;28;20223;-91
2022/07/17 10:33:06;;;;;;;10.68;10.07;;;35.10;95.40;;;;;;4958718;29;20027;-92
2022/07/17 10:35:47;;;;;;;11.07;10.43;;;35.10;93.60;;;;;;4943214;29;20089;-93
2022/07/17 10:38:16;;;;;;;10.73;10.23;;;35.20;93.20;;;;;;4958856;29;20039;-94
2022/07/17 10:40:43;;;;;;;10.45;9.75;;;35.20;91.80;;;;;;4942659;29;20019;-95
2022/07/17 10:43:10;;;;;;;10.70;10.13;;;35.10;92.60;;;;;;4942706;29;20079;-92
2022/07/17 10:45:46;;;;;;;10.43;9.73;;;35.20;91.70;;;;;;4960511;28;20054;-91
2022/07/17 10:48:20;;;;;;;10.77;10.27;;;35.20;92.50;;;;;;4959301;28;20035;-92
2022/07/17 10:50:49;;;;;;;10.88;10.07;;;35.30;93.40;;;;;;4942606;29;20038;-94
2022/07/17 10:53:26;;;;;;;10.82;10.32;;;35.20;92.60;;;;;;4958620;29;20445;-92
2022/07/17 10:56:04;;;;;;;10.90;10.23;;;35.00;92.00;;;;;;4958608;28;20477;-91
2022/07/17 10:58:34;;;;;;;11.30;10.63;;;35.30;91.70;;;;;;4958681;29;20039;-93
2022/07/17 11:01:12;;;;;;;11.40;10.85;;;35.30;92.00;;;;;;4942385;29;20063;-92
2022/07/17 11:03:53;;;;;;;10.98;10.48;;;35.50;91.60;;;;;;4942949;29;20468;-90
2022/07/17 11:06:29;;;;;;;10.82;10.35;;;35.90;90.50;;;;;;4942277;29;20035;-94
2022/07/17 11:09:04;;;;;;;11.90;11.30;;;36.10;91.30;;;;;;4959062;29;20369;-92
2022/07/17 11:11:47;;;;;;;11.27;10.77;;;36.50;91.30;;;;;;4942377;29;20031;-93
2022/07/17 11:14:18;;;;;;;11.30;10.70;;;36.20;91.40;;;;;;4958850;29;20426;-93
2022/07/17 11:16:51;;;;;;;11.38;10.77;;;36.10;91.30;;;;;;4958149;28;20081;-93
2022/07/17 11:19:28;;;;;;;11.68;10.95;;;36.30;91.10;;;;;;4957924;28;20071;-93
2022/07/17 11:21:57;;;;;;;11.65;11.15;;;36.20;90.90;;;;;;4973967;28;20038;-91
2022/07/17 11:24:26;;;;;;;12.00;11.30;;;36.40;91.00;;;;;;4958962;29;20035;-92
2022/07/17 11:26:53;;;;;;;11.80;11.20;;;36.20;91.10;;;;;;4940804;29;20075;-91
2022/07/17 11:29:20;;;;;;;11.27;10.60;;;35.60;91.60;;;;;;4941014;29;20608;-92
2022/07/17 11:31:47;;;;;;;11.25;10.63;;;35.30;91.00;;;;;;4939258;29;20043;-92
2022/07/17 11:34:13;;;;;;;11.00;10.50;;;35.40;90.10;;;;;;4937526;29;20070;-90
2022/07/17 11:36:43;;;;;;;11.30;10.70;;;35.50;90.30;;;;;;4922624;29;20179;-93
2022/07/17 11:39:13;;;;;;;11.85;11.07;;;35.70;90.30;;;;;;4938354;29;20043;-91
2022/07/17 11:41:43;;;;;;;12.32;11.63;;;35.70;90.00;;;;;;4922734;29;20032;-94
2022/07/17 11:44:14;;;;;;;11.70;11.10;;;35.80;90.20;;;;;;4938412;29;20035;-92
2022/07/17 11:46:42;;;;;;;11.30;10.60;;;35.80;90.20;;;;;;4938405;29;20036;-92
2022/07/17 11:49:09;;;;;;;11.20;10.70;;;35.80;88.40;;;;;;4938251;29;20484;-92
2022/07/17 11:51:44;;;;;;;11.52;11.00;;;35.70;88.20;;;;;;4938293;29;20040;-93
2022/07/17 11:54:16;;;;;;;11.90;11.20;;;35.70;88.70;;;;;;4920266;29;20032;-91
2022/07/17 11:56:51;;;;;;;11.10;10.52;;;35.60;89.00;;;;;;4922250;29;20114;-92
2022/07/17 11:59:26;;;;;;;10.90;10.32;;;35.70;87.50;;;;;;4922419;29;20046;-92
2022/07/17 12:01:53;;;;;;;11.60;10.90;;;35.80;89.50;;;;;;4937947;29;20063;-91
2022/07/17 12:04:20;;;;;;;11.40;10.80;;;35.70;85.30;;;;;;4922095;29;20032;-93
2022/07/17 12:07:00;;;;;;;11.10;10.50;;;35.50;87.90;;;;;;4921994;29;20027;-93
2022/07/17 12:09:28;;;;;;;11.82;11.27;;;35.50;89.40;;;;;;4937787;29;20040;-93
2022/07/17 12:11:54;;;;;;;11.95;11.35;;;35.80;89.00;;;;;;4921939;29;20039;-91
2022/07/17 12:14:21;;;;;;;12.15;11.55;;;35.80;88.70;;;;;;4922629;29;20028;-92
2022/07/17 12:16:47;;;;;;;12.48;11.77;;;35.90;88.50;;;;;;4922618;29;20024;-91
2022/07/17 12:19:19;;;;;;;12.43;11.60;;;36.30;89.30;;;;;;4921948;29;20139;-92
2022/07/17 12:22:05;;;;;;;12.70;12.00;;;36.20;88.40;;;;;;4921825;29;20024;-91
2022/07/17 12:24:44;;;;;;;11.93;11.13;;;35.50;88.20;;;;;;4935519;29;20024;-91
2022/07/17 12:27:14;;;;;;;12.02;11.38;;;35.50;90.30;;;;;;4935763;29;20138;-93
2022/07/17 12:29:43;;;;;;;11.95;11.27;;;35.70;90.20;;;;;;4956887;29;20460;-92
2022/07/17 12:32:15;;;;;;;12.20;11.32;;;35.60;90.60;;;;;;4955940;29;20471;-91
2022/07/17 12:34:48;;;;;;;12.20;11.50;;;35.60;90.40;;;;;;4952873;29;20066;-92
2022/07/17 12:37:17;;;;;;;12.02;11.43;;;35.60;90.60;;;;;;4949528;29;20515;-92
2022/07/17 12:39:48;;;;;;;12.20;11.50;;;35.60;91.00;;;;;;4921249;29;20039;-92
2022/07/17 12:42:16;;;;;;;12.20;11.35;;;35.80;91.00;;;;;;4940445;29;20031;-93
2022/07/17 12:44:45;;;;;;;12.27;11.65;;;35.80;90.50;;;;;;4955959;28;20097;-93
2022/07/17 12:47:12;;;;;;;11.48;10.88;;;35.80;90.90;;;;;;4958010;29;20503;-91
2022/07/17 12:49:45;;;;;;;11.70;10.80;;;35.60;91.30;;;;;;4956646;29;20087;-92
2022/07/17 12:52:13;;;;;;;11.20;10.63;;;35.60;91.00;;;;;;4950680;29;20031;-91
2022/07/17 12:54:41;;;;;;;12.77;10.77;;;35.50;91.40;;;;;;4938019;29;20051;-92
2022/07/17 12:57:08;;;;;;;11.30;10.70;;;35.90;91.50;;;;;;4953804;29;20035;-92
2022/07/17 12:59:34;;;;;;;11.77;11.13;;;35.80;90.80;;;;;;4941641;29;20031;-91
2022/07/17 13:02:01;;;;;;;11.32;10.82;;;35.60;91.00;;;;;;4950942;29;20035;-91
2022/07/17 13:04:31;;;;;;;11.68;11.07;;;35.80;90.60;;;;;;4940165;29;20024;-92
2022/07/17 13:06:57;;;;;;;11.50;10.95;;;35.90;90.20;;;;;;4951570;29;20078;-93
2022/07/17 13:09:24;;;;;;;11.85;11.13;;;35.80;90.20;;;;;;4939338;29;20039;-93
2022/07/17 13:11:51;;;;;;;11.55;10.85;;;35.60;90.00;;;;;;4955626;29;20027;-92
2022/07/17 13:14:18;;;;;;;12.25;11.40;;;35.60;89.50;;;;;;4939844;29;20122;-93
2022/07/17 13:16:45;;;;;;;12.15;11.43;;;35.70;89.70;;;;;;4955740;29;20038;-92
2022/07/17 13:19:14;;;;;;;12.07;11.48;;;35.50;90.00;;;;;;4939529;29;20374;-94
2022/07/17 13:21:44;;;;;;;11.80;11.20;;;35.60;90.00;;;;;;4939991;29;20096;-93
2022/07/17 13:24:11;;;;;;;12.75;11.77;;;35.60;90.40;;;;;;4955615;29;20027;-92
2022/07/17 13:26:38;;;;;;;11.70;11.00;;;35.60;88.90;;;;;;4955219;29;20032;-92
2022/07/17 13:29:07;;;;;;;11.70;11.10;;;35.60;90.30;;;;;;4955394;29;20043;-94
2022/07/17 13:31:34;;;;;;;12.05;11.30;;;35.50;90.40;;;;;;4939583;29;20023;-92
2022/07/17 13:34:00;;;;;;;11.95;11.30;;;35.20;90.40;;;;;;4955306;29;20032;-92
2022/07/17 13:36:26;;;;;;;11.88;11.23;;;35.20;88.90;;;;;;4939592;29;20151;-92
2022/07/17 13:38:53;;;;;;;11.75;11.15;;;35.00;88.00;;;;;;4939838;29;20062;-94
2022/07/17 13:41:19;;;;;;;12.18;11.48;;;35.10;89.70;;;;;;4939688;29;20078;-92
2022/07/17 13:43:46;;;;;;;11.98;11.27;;;35.10;89.30;;;;;;4955480;29;20129;-92
2022/07/17 13:46:12;;;;;;;11.88;11.07;;;35.20;89.70;;;;;;4944811;29;20023;-94
2022/07/17 13:48:39;;;;;;;11.55;10.90;;;35.20;89.40;;;;;;4968051;29;20035;-93
2022/07/17 13:51:06;;;;;;;11.80;11.10;;;35.00;90.00;;;;;;4952249;29;20019;-93
2022/07/17 13:53:34;;;;;;;11.25;10.63;;;35.00;90.60;;;;;;4961745;29;20031;-92
2022/07/17 13:56:01;;;;;;;11.07;10.48;;;35.00;90.40;;;;;;4945550;28;20105;-94
2022/07/17 13:58:28;;;;;;;10.82;10.32;;;35.10;90.70;;;;;;4958749;29;20035;-93
2022/07/17 14:00:54;;;;;;;11.77;11.00;;;35.10;90.10;;;;;;4968914;29;20055;-95
2022/07/17 14:03:22;;;;;;;11.10;10.60;;;35.20;90.30;;;;;;4954408;29;20023;-93
2022/07/17 14:05:49;;;;;;;11.77;11.00;;;35.30;90.50;;;;;;4945360;29;20043;-94
2022/07/17 14:08:16;;;;;;;11.95;11.05;;;35.20;89.30;;;;;;4960988;29;20098;-92
2022/07/17 14:10:43;;;;;;;11.60;10.98;;;35.20;90.40;;;;;;4947482;29;20046;-92
2022/07/17 14:13:09;;;;;;;12.10;11.40;;;35.20;90.30;;;;;;4954568;29;20038;-92
2022/07/17 14:15:36;;;;;;;11.73;11.02;;;35.20;90.40;;;;;;4939067;29;20081;-93
2022/07/17 14:18:05;;;;;;;11.05;10.35;;;35.10;90.70;;;;;;4941681;29;20386;-93
2022/07/17 14:20:32;;;;;;;11.20;10.60;;;35.20;90.50;;;;;;4940778;29;20163;-92
2022/07/17 14:22:58;;;;;;;11.43;10.73;;;35.40;90.90;;;;;;4954887;29;20134;-93
2022/07/17 14:25:25;;;;;;;10.63;10.13;;;35.50;91.50;;;;;;4955024;29;20051;-92
2022/07/17 14:27:51;;;;;;;11.23;10.63;;;35.30;91.00;;;;;;4941509;29;20051;-94
2022/07/17 14:30:17;;;;;;;11.73;11.02;;;35.20;90.80;;;;;;4938908;29;20046;-93
2022/07/17 14:32:44;;;;;;;11.02;10.52;;;35.20;89.80;;;;;;4921373;29;20039;-93
2022/07/17 14:35:10;;;;;;;11.57;10.98;;;35.30;90.20;;;;;;4920026;29;20036;-93
2022/07/17 14:37:37;;;;;;;11.75;11.15;;;35.30;89.20;;;;;;4919664;29;20035;-94
2022/07/17 14:40:05;;;;;;;11.68;10.90;;;35.10;89.10;;;;;;4935809;29;20043;-94
2022/07/17 14:42:33;;;;;;;11.45;10.70;;;35.00;89.90;;;;;;4930274;29;20492;-95
2022/07/17 14:45:00;;;;;;;11.55;10.80;;;35.00;90.50;;;;;;4920028;29;20063;-94
2022/07/17 14:47:27;;;;;;;12.15;11.45;;;35.00;90.60;;;;;;4935638;29;20038;-93
2022/07/17 14:49:54;;;;;;;11.35;10.75;;;35.10;90.90;;;;;;4932729;29;20039;-94
2022/07/17 14:52:20;;;;;;;11.38;10.68;;;35.20;90.90;;;;;;4935413;29;20110;-93
2022/07/17 14:54:47;;;;;;;11.15;10.55;;;35.00;91.10;;;;;;4935566;29;20043;-94
2022/07/17 14:57:13;;;;;;;10.95;10.45;;;35.20;91.20;;;;;;4919481;29;20032;-95
2022/07/17 14:59:40;;;;;;;11.52;10.82;;;35.20;91.10;;;;;;4919708;29;20091;-94
2022/07/17 15:02:07;;;;;;;11.93;11.18;;;35.20;90.80;;;;;;4919866;29;20114;-95
2022/07/17 15:04:36;;;;;;;11.55;10.85;;;35.10;90.50;;;;;;4919616;29;20036;-92
2022/07/17 15:07:05;;;;;;;11.82;11.10;;;35.00;90.30;;;;;;4925072;29;20110;-93
2022/07/17 15:09:31;;;;;;;11.30;10.68;;;34.90;90.90;;;;;;4938705;29;20028;-94
2022/07/17 15:11:58;;;;;;;11.68;10.98;;;35.00;91.10;;;;;;4923638;29;20027;-94
2022/07/17 15:14:24;;;;;;;11.57;10.88;;;34.80;91.10;;;;;;4922951;29;20453;-95
2022/07/17 15:16:51;;;;;;;11.32;10.63;;;34.90;90.90;;;;;;4923022;29;20020;-94
2022/07/17 15:19:17;;;;;;;11.30;10.50;;;34.90;90.90;;;;;;4924555;29;20059;-94
2022/07/17 15:21:44;;;;;;;12.02;10.90;;;34.80;91.00;;;;;;4939800;29;20102;-94
2022/07/17 15:24:10;;;;;;;11.40;10.77;;;34.50;91.40;;;;;;4922965;29;20039;-94
2022/07/17 15:26:37;;;;;;;11.30;10.70;;;34.60;91.60;;;;;;4926079;28;20039;-94
2022/07/17 15:29:03;;;;;;;11.73;10.82;;;34.50;91.70;;;;;;4938273;29;20044;-93
2022/07/17 15:31:30;;;;;;;11.98;11.18;;;34.50;91.80;;;;;;4938585;29;20035;-95
2022/07/17 15:33:56;;;;;;;11.55;10.77;;;34.50;91.70;;;;;;4938637;29;20032;-91
2022/07/17 15:36:25;;;;;;;12.35;11.23;;;34.40;91.80;;;;;;4941732;29;20476;-95
2022/07/17 15:39:02;;;;;;;12.18;11.40;;;34.20;92.30;;;;;;4922622;29;20059;-93
2022/07/17 15:41:29;;;;;;;11.60;10.90;;;34.30;92.20;;;;;;4899847;29;20056;-94
2022/07/17 15:43:56;;;;;;;11.85;11.20;;;34.20;92.20;;;;;;4881682;29;20130;-92
2022/07/17 15:46:23;;;;;;;12.15;11.25;;;34.40;92.20;;;;;;4903224;29;20040;-93
2022/07/17 15:48:50;;;;;;;16.08;14.68;;;34.20;92.80;;;;;;4902833;29;20083;-93
2022/07/17 15:51:16;;;;;;;17.27;15.90;;;34.10;92.40;;;;;;4918127;29;20383;-93
2022/07/17 15:53:43;;;;;;;17.73;16.42;;;34.10;92.60;;;;;;4902726;29;21711;-94
2022/07/17 15:56:10;;;;;;;18.23;16.73;;;34.10;92.90;;;;;;4918654;29;20048;-94
2022/07/17 15:58:37;;;;;;;19.08;17.30;;;34.10;93.10;;;;;;4902628;29;20448;-94
2022/07/17 16:01:12;;;;;;;19.33;17.60;;;34.00;93.00;;;;;;4900086;29;20051;-93
2022/07/17 16:03:38;;;;;;;18.73;17.02;;;33.90;92.80;;;;;;4884883;29;20055;-95
2022/07/17 16:06:05;;;;;;;18.70;17.13;;;33.90;93.00;;;;;;4884418;29;20168;-94
2022/07/17 16:08:32;;;;;;;16.63;15.27;;;34.10;92.80;;;;;;4883883;29;20036;-94
2022/07/17 16:10:58;;;;;;;16.27;14.88;;;34.10;92.80;;;;;;4883413;29;20455;-94
2022/07/17 16:13:28;;;;;;;16.33;14.82;;;34.10;92.40;;;;;;4916476;29;20036;-94
2022/07/17 16:15:55;;;;;;;15.30;14.07;;;33.80;92.70;;;;;;4905451;29;20055;-94
2022/07/17 16:18:21;;;;;;;18.05;16.45;;;33.80;93.00;;;;;;4901014;29;20048;-95
2022/07/17 16:20:48;;;;;;;24.38;19.73;;;33.80;93.00;;;;;;4920312;29;20540;-95
2022/07/17 16:23:19;;;;;;;19.42;17.42;;;33.70;93.10;;;;;;4920781;29;20036;-93
2022/07/17 16:25:46;;;;;;;22.40;20.30;;;33.70;93.30;;;;;;4920807;29;20031;-94
2022/07/17 16:28:13;;;;;;;20.00;18.13;;;33.70;93.10;;;;;;4933264;29;20078;-94
2022/07/17 16:30:39;;;;;;;19.70;18.10;;;33.50;93.20;;;;;;4936951;29;20028;-93
2022/07/17 16:33:06;;;;;;;18.58;17.08;;;33.60;93.30;;;;;;4937595;29;20036;-95
2022/07/17 16:35:33;;;;;;;17.60;15.80;;;33.40;93.60;;;;;;4947039;29;20028;-93
2022/07/17 16:38:00;;;;;;;15.52;14.13;;;33.40;93.40;;;;;;4923987;29;20032;-93
2022/07/17 16:40:27;;;;;;;14.05;13.13;;;33.30;93.30;;;;;;4953494;29;20039;-93
2022/07/17 16:42:53;;;;;;;15.10;13.90;;;33.20;93.60;;;;;;4949661;29;20059;-93
2022/07/17 16:45:20;;;;;;;14.60;13.27;;;33.10;93.60;;;;;;4920795;29;20493;-94
2022/07/17 16:47:50;;;;;;;16.15;14.52;;;33.10;93.80;;;;;;4953578;29;20059;-93
2022/07/17 16:50:16;;;;;;;14.48;13.40;;;33.00;93.70;;;;;;4953181;29;20031;-94
2022/07/17 16:52:43;;;;;;;14.15;13.05;;;33.00;94.00;;;;;;4939730;29;20037;-95
2022/07/17 16:55:13;;;;;;;13.40;12.30;;;32.80;94.20;;;;;;4906224;29;20127;-93
2022/07/17 16:57:40;;;;;;;12.90;12.00;;;32.70;94.50;;;;;;4940241;29;20040;-93
2022/07/17 17:00:10;;;;;;;12.73;11.60;;;32.70;94.70;;;;;;4905742;29;20122;-94
2022/07/17 17:02:37;;;;;;;12.18;11.35;;;32.70;95.00;;;;;;4914478;29;20051;-93
2022/07/17 17:05:12;;;;;;;11.95;11.18;;;32.70;95.10;;;;;;4937745;29;20129;-94
2022/07/17 17:07:40;;;;;;;11.48;10.75;;;32.70;95.10;;;;;;4936676;29;20028;-93
2022/07/17 17:10:08;;;;;;;11.68;10.77;;;32.60;95.10;;;;;;4936790;29;20119;-94
2022/07/17 17:12:35;;;;;;;11.68;10.77;;;32.50;94.80;;;;;;4941092;29;20036;-94
2022/07/17 17:15:03;;;;;;;11.73;10.98;;;32.50;94.70;;;;;;4903108;29;20063;-94
2022/07/17 17:17:32;;;;;;;11.85;11.15;;;32.30;94.70;;;;;;4901568;29;20039;-93
2022/07/17 17:19:59;;;;;;;12.45;11.55;;;32.30;94.80;;;;;;4901812;29;20037;-93
2022/07/17 17:22:25;;;;;;;12.48;11.57;;;32.10;94.80;;;;;;4901917;29;20107;-93
2022/07/17 17:24:55;;;;;;;11.35;10.57;;;32.10;94.70;;;;;;4901833;29;20028;-93
2022/07/17 17:27:22;;;;;;;11.15;10.55;;;32.00;94.60;;;;;;4912649;29;20047;-95
2022/07/17 17:29:48;;;;;;;11.77;11.07;;;31.90;94.60;;;;;;4920517;29;20492;-94
2022/07/17 17:32:15;;;;;;;11.82;10.63;;;31.90;94.90;;;;;;4919655;29;20130;-94
2022/07/17 17:34:42;;;;;;;11.00;10.40;;;31.70;95.10;;;;;;4936148;29;20026;-94
2022/07/17 17:37:08;;;;;;;10.80;10.10;;;31.60;95.40;;;;;;4930207;29;20087;-95
2022/07/17 17:39:35;;;;;;;11.18;10.48;;;31.60;95.60;;;;;;4901495;29;20064;-93
2022/07/17 17:42:01;;;;;;;11.68;10.60;;;31.50;95.90;;;;;;4919926;29;20024;-94
2022/07/17 17:44:28;;;;;;;11.00;9.90;;;31.40;95.40;;;;;;4919991;29;20035;-96
